sensor_id;sensor_type;location;lat;lon;timestamp;pressure;altitude;pressure_sealevel;temperature;humidity
9281;BME280;4679;47.966;7.958;2022-12-29T07:29:01;96713.31;;;13.59;51.87
9281;BME280;4679;47.966;7.958;2022-12-29T07:31:03;96723.19;;;13.59;51.95
9281;BME280;4679;47.966;7.958;2022-12-29T07:33:05;96727.72;;;13.53;51.96
9281;BME280;4679;47.966;7.958;2022-12-29T07:35:07;96733.53;;;13.65;51.78
9281;BME280;4679;47.966;7.958;2022-12-29T07:37:09;96738.34;;;13.68;51.69
9281;BME280;4679;47.966;7.958;2022-12-29T07:39:11;96741.00;;;13.68;51.85
9281;BME280;4679;47.966;7.958;2022-12-29T07:41:13;96794.31;;;13.73;52.02
9281;BME280;4679;47.966;7.958;2022-12-29T07:43:14;96747.13;;;13.74;51.52
9281;BME280;4679;47.966;7.958;2022-12-29T07:45:17;96725.28;;;13.67;51.69
9281;BME280;4679;47.966;7.958;2022-12-29T07:47:19;96761.25;;;13.64;51.92
9281;BME280;4679;47.966;7.958;2022-12-29T07:49:21;96742.06;;;13.62;51.93
9281;BME280;4679;47.966;7.958;2022-12-29T07:51:22;96744.50;;;13.54;52.18
9281;BME280;4679;47.966;7.958;2022-12-29T07:53:24;96752.25;;;13.50;52.10
9281;BME280;4679;47.966;7.958;2022-12-29T07:55:26;96744.25;;;13.55;52.28
9281;BME280;4679;47.966;7.958;2022-12-29T07:57:27;96764.19;;;13.63;52.10
9281;BME280;4679;47.966;7.958;2022-12-29T07:59:29;96757.81;;;13.64;51.99
9281;BME280;4679;47.966;7.958;2022-12-29T08:01:32;96758.34;;;13.61;52.17
9281;BME280;4679;47.966;7.958;2022-12-29T08:03:34;96743.13;;;13.61;52.00
9281;BME280;4679;47.966;7.958;2022-12-29T08:05:36;96753.81;;;13.61;52.09
9281;BME280;4679;47.966;7.958;2022-12-29T08:07:38;96751.13;;;13.66;52.25
9281;BME280;4679;47.966;7.958;2022-12-29T08:09:40;96770.31;;;13.73;52.11
9281;BME280;4679;47.966;7.958;2022-12-29T08:11:41;96770.06;;;13.70;52.09
9281;BME280;4679;47.966;7.958;2022-12-29T08:13:43;96785.25;;;13.64;51.36
9281;BME280;4679;47.966;7.958;2022-12-29T08:15:45;96775.13;;;13.66;51.79
9281;BME280;4679;47.966;7.958;2022-12-29T08:17:48;96774.84;;;13.68;51.98
9281;BME280;4679;47.966;7.958;2022-12-29T08:19:50;96773.25;;;13.67;52.00
9281;BME280;4679;47.966;7.958;2022-12-29T08:21:52;96764.72;;;13.65;52.03
9281;BME280;4679;47.966;7.958;2022-12-29T08:23:54;96794.59;;;13.67;52.16
9281;BME280;4679;47.966;7.958;2022-12-29T08:25:59;96759.94;;;13.62;52.20
9281;BME280;4679;47.966;7.958;2022-12-29T08:28:01;96763.13;;;13.64;51.95
9281;BME280;4679;47.966;7.958;2022-12-29T08:30:04;96814.31;;;13.61;51.88
9281;BME280;4679;47.966;7.958;2022-12-29T08:32:06;96810.34;;;13.58;52.20
9281;BME280;4679;47.966;7.958;2022-12-29T08:34:09;96806.88;;;13.53;52.27
9281;BME280;4679;47.966;7.958;2022-12-29T08:36:11;96817.53;;;13.48;52.29
9281;BME280;4679;47.966;7.958;2022-12-29T08:38:12;96815.94;;;13.47;52.46
9281;BME280;4679;47.966;7.958;2022-12-29T08:40:14;96806.66;;;13.44;52.63
9281;BME280;4679;47.966;7.958;2022-12-29T08:42:16;96810.63;;;13.36;52.70
9281;BME280;4679;47.966;7.958;2022-12-29T08:44:18;96847.69;;;13.33;52.97
9281;BME280;4679;47.966;7.958;2022-12-29T08:46:19;96811.44;;;13.32;53.33
9281;BME280;4679;47.966;7.958;2022-12-29T08:48:22;96805.88;;;13.28;53.17
9281;BME280;4679;47.966;7.958;2022-12-29T08:50:25;96812.53;;;13.26;53.23
9281;BME280;4679;47.966;7.958;2022-12-29T08:52:27;96808.53;;;13.28;53.15
9281;BME280;4679;47.966;7.958;2022-12-29T08:54:29;96820.22;;;13.32;53.06
9281;BME280;4679;47.966;7.958;2022-12-29T08:56:31;96806.66;;;13.34;53.34
9281;BME280;4679;47.966;7.958;2022-12-29T08:58:32;96805.31;;;13.36;53.12
9281;BME280;4679;47.966;7.958;2022-12-29T09:00:34;96816.78;;;13.37;53.25
9281;BME280;4679;47.966;7.958;2022-12-29T09:02:36;96824.50;;;13.38;53.57
9281;BME280;4679;47.966;7.958;2022-12-29T09:04:38;96815.97;;;13.42;53.38
9281;BME280;4679;47.966;7.958;2022-12-29T09:06:41;96827.16;;;13.44;53.62
9281;BME280;4679;47.966;7.958;2022-12-29T09:08:42;96830.91;;;13.43;53.59
9281;BME280;4679;47.966;7.958;2022-12-29T09:10:44;96839.97;;;13.42;53.63
9281;BME280;4679;47.966;7.958;2022-12-29T09:12:46;96834.63;;;13.36;53.69
9281;BME280;4679;47.966;7.958;2022-12-29T09:14:48;96847.94;;;13.31;53.46
9281;BME280;4679;47.966;7.958;2022-12-29T09:16:51;96827.97;;;13.29;54.15
9281;BME280;4679;47.966;7.958;2022-12-29T09:19:10;96810.41;;;13.28;54.19
9281;BME280;4679;47.966;7.958;2022-12-29T09:21:12;96844.75;;;13.24;54.22
9281;BME280;4679;47.966;7.958;2022-12-29T09:23:15;96844.22;;;13.22;54.38
9281;BME280;4679;47.966;7.958;2022-12-29T09:25:18;96845.03;;;13.18;54.59
9281;BME280;4679;47.966;7.958;2022-12-29T09:27:20;96849.00;;;13.15;54.66
9281;BME280;4679;47.966;7.958;2022-12-29T09:29:22;96853.53;;;13.10;55.13
9281;BME280;4679;47.966;7.958;2022-12-29T09:31:23;96844.72;;;13.04;55.13
9281;BME280;4679;47.966;7.958;2022-12-29T09:33:25;96843.41;;;12.96;55.33
9281;BME280;4679;47.966;7.958;2022-12-29T09:35:27;96857.22;;;12.88;56.04
9281;BME280;4679;47.966;7.958;2022-12-29T09:37:29;96871.31;;;12.84;56.07
9281;BME280;4679;47.966;7.958;2022-12-29T09:39:32;96867.59;;;12.80;55.96
9281;BME280;4679;47.966;7.958;2022-12-29T09:41:38;96879.56;;;12.72;56.31
9281;BME280;4679;47.966;7.958;2022-12-29T09:44:03;96884.88;;;12.67;56.57
9281;BME280;4679;47.966;7.958;2022-12-29T09:46:13;96895.47;;;12.57;56.82
9281;BME280;4679;47.966;7.958;2022-12-29T09:48:23;96899.47;;;12.49;57.29
9281;BME280;4679;47.966;7.958;2022-12-29T09:50:30;96897.03;;;12.43;57.49
9281;BME280;4679;47.966;7.958;2022-12-29T09:52:36;96899.16;;;12.36;57.70
9281;BME280;4679;47.966;7.958;2022-12-29T09:54:45;96891.38;;;12.29;57.84
9281;BME280;4679;47.966;7.958;2022-12-29T09:56:51;96884.72;;;12.21;58.25
9281;BME280;4679;47.966;7.958;2022-12-29T09:58:56;96880.97;;;12.17;58.53
9281;BME280;4679;47.966;7.958;2022-12-29T10:01:02;96890.25;;;12.15;59.53
9281;BME280;4679;47.966;7.958;2022-12-29T10:03:10;96875.31;;;12.09;59.39
9281;BME280;4679;47.966;7.958;2022-12-29T10:05:22;96885.16;;;12.08;59.63
9281;BME280;4679;47.966;7.958;2022-12-29T10:07:40;96883.31;;;12.09;59.29
9281;BME280;4679;47.966;7.958;2022-12-29T10:09:50;96884.38;;;12.08;59.42
9281;BME280;4679;47.966;7.958;2022-12-29T10:12:03;96879.31;;;12.06;59.88
9281;BME280;4679;47.966;7.958;2022-12-29T10:14:21;96889.16;;;12.06;60.21
9281;BME280;4679;47.966;7.958;2022-12-29T10:16:34;96881.19;;;12.06;59.95
9281;BME280;4679;47.966;7.958;2022-12-29T10:19:03;96875.56;;;12.02;60.78
9281;BME280;4679;47.966;7.958;2022-12-29T10:21:16;96865.22;;;12.06;60.22
9281;BME280;4679;47.966;7.958;2022-12-29T10:23:27;96857.50;;;12.09;60.89
9281;BME280;4679;47.966;7.958;2022-12-29T10:25:34;96844.22;;;12.09;60.52
9281;BME280;4679;47.966;7.958;2022-12-29T10:27:39;96855.66;;;12.10;60.36
9281;BME280;4679;47.966;7.958;2022-12-29T10:29:44;96849.81;;;12.13;60.63
9281;BME280;4679;47.966;7.958;2022-12-29T10:31:50;96846.09;;;12.14;61.00
9281;BME280;4679;47.966;7.958;2022-12-29T10:33:57;96835.47;;;12.14;61.08
9281;BME280;4679;47.966;7.958;2022-12-29T10:36:04;96845.59;;;12.17;61.04
9281;BME280;4679;47.966;7.958;2022-12-29T10:38:20;96853.31;;;12.18;60.62
9281;BME280;4679;47.966;7.958;2022-12-29T10:40:26;96845.34;;;12.23;61.67
9281;BME280;4679;47.966;7.958;2022-12-29T10:42:35;96862.91;;;12.24;61.72
9281;BME280;4679;47.966;7.958;2022-12-29T10:44:38;96831.22;;;12.23;61.58
9281;BME280;4679;47.966;7.958;2022-12-29T10:46:40;96861.84;;;12.20;61.10
9281;BME280;4679;47.966;7.958;2022-12-29T10:48:43;96851.44;;;12.14;61.48
9281;BME280;4679;47.966;7.958;2022-12-29T10:50:47;96848.47;;;12.05;62.25
9281;BME280;4679;47.966;7.958;2022-12-29T10:52:49;96850.81;;;11.96;62.18
9281;BME280;4679;47.966;7.958;2022-12-29T10:54:54;96842.03;;;11.91;61.88
9281;BME280;4679;47.966;7.958;2022-12-29T10:57:00;96836.16;;;11.89;62.92
9281;BME280;4679;47.966;7.958;2022-12-29T10:59:12;96837.50;;;11.91;62.80
9281;BME280;4679;47.966;7.958;2022-12-29T11:01:17;96832.19;;;11.91;63.33
9281;BME280;4679;47.966;7.958;2022-12-29T11:03:46;96821.81;;;11.95;62.43
9281;BME280;4679;47.966;7.958;2022-12-29T11:05:54;96818.09;;;11.96;62.98
9281;BME280;4679;47.966;7.958;2022-12-29T11:08:00;96799.81;;;12.05;62.83
9281;BME280;4679;47.966;7.958;2022-12-29T11:10:20;96814.19;;;12.14;62.53
9281;BME280;4679;47.966;7.958;2022-12-29T11:12:25;96791.88;;;12.20;62.48
9281;BME280;4679;47.966;7.958;2022-12-29T11:14:30;96805.72;;;12.27;62.72
9281;BME280;4679;47.966;7.958;2022-12-29T11:16:33;96801.22;;;12.32;62.24
9281;BME280;4679;47.966;7.958;2022-12-29T11:18:37;96811.84;;;12.38;62.39
9281;BME280;4679;47.966;7.958;2022-12-29T11:20:41;96807.63;;;12.37;62.10
9281;BME280;4679;47.966;7.958;2022-12-29T11:22:44;96787.91;;;12.32;62.51
9281;BME280;4679;47.966;7.958;2022-12-29T11:24:46;96801.50;;;12.36;62.90
9281;BME280;4679;47.966;7.958;2022-12-29T11:26:50;96807.34;;;12.43;62.66
9281;BME280;4679;47.966;7.958;2022-12-29T11:29:16;96808.97;;;12.54;62.41
9281;BME280;4679;47.966;7.958;2022-12-29T11:31:21;96791.41;;;12.68;61.90
9281;BME280;4679;47.966;7.958;2022-12-29T11:33:23;96790.91;;;12.77;62.28
9281;BME280;4679;47.966;7.958;2022-12-29T11:35:36;96805.03;;;12.77;61.77
9281;BME280;4679;47.966;7.958;2022-12-29T11:37:40;96786.66;;;12.76;62.00
9281;BME280;4679;47.966;7.958;2022-12-29T11:39:49;96799.19;;;12.80;62.10
9281;BME280;4679;47.966;7.958;2022-12-29T11:41:52;96787.44;;;12.86;62.14
9281;BME280;4679;47.966;7.958;2022-12-29T11:43:56;96801.03;;;12.90;61.77
9281;BME280;4679;47.966;7.958;2022-12-29T11:45:59;96796.00;;;12.93;61.87
9281;BME280;4679;47.966;7.958;2022-12-29T11:48:09;96776.03;;;12.96;61.63
9281;BME280;4679;47.966;7.958;2022-12-29T11:50:18;96789.06;;;12.97;61.53
9281;BME280;4679;47.966;7.958;2022-12-29T11:52:22;96788.78;;;13.04;61.79
9281;BME280;4679;47.966;7.958;2022-12-29T11:54:27;96776.81;;;13.12;61.29
9281;BME280;4679;47.966;7.958;2022-12-29T11:56:34;96775.44;;;13.14;61.19
9281;BME280;4679;47.966;7.958;2022-12-29T11:58:38;96801.59;;;13.12;61.23
9281;BME280;4679;47.966;7.958;2022-12-29T12:00:40;96778.94;;;13.15;61.00
9281;BME280;4679;47.966;7.958;2022-12-29T12:02:46;96781.84;;;13.33;60.83
9281;BME280;4679;47.966;7.958;2022-12-29T12:04:56;96780.50;;;13.46;60.37
9281;BME280;4679;47.966;7.958;2022-12-29T12:07:09;96762.94;;;13.40;60.71
9281;BME280;4679;47.966;7.958;2022-12-29T12:09:17;96770.66;;;13.42;60.68
9281;BME280;4679;47.966;7.958;2022-12-29T12:11:26;96776.00;;;13.31;60.94
9281;BME280;4679;47.966;7.958;2022-12-29T12:13:37;96772.28;;;13.22;61.07
9281;BME280;4679;47.966;7.958;2022-12-29T12:15:44;96768.03;;;13.16;60.94
9281;BME280;4679;47.966;7.958;2022-12-29T12:17:51;96778.69;;;13.11;61.11
9281;BME280;4679;47.966;7.958;2022-12-29T12:19:59;96776.53;;;13.08;61.23
9281;BME280;4679;47.966;7.958;2022-12-29T12:22:08;96770.16;;;13.09;61.24
9281;BME280;4679;47.966;7.958;2022-12-29T12:24:23;96774.69;;;13.14;60.77
9281;BME280;4679;47.966;7.958;2022-12-29T12:26:36;96763.50;;;13.22;61.06
9281;BME280;4679;47.966;7.958;2022-12-29T12:28:48;96764.31;;;13.27;60.71
9281;BME280;4679;47.966;7.958;2022-12-29T12:30:54;96754.44;;;13.23;60.96
9281;BME280;4679;47.966;7.958;2022-12-29T12:33:00;96758.97;;;13.27;60.97
9281;BME280;4679;47.966;7.958;2022-12-29T12:35:10;96741.34;;;13.31;60.85
9281;BME280;4679;47.966;7.958;2022-12-29T12:37:25;96745.91;;;13.26;61.08
9281;BME280;4679;47.966;7.958;2022-12-29T12:39:37;96748.84;;;13.19;61.18
9281;BME280;4679;47.966;7.958;2022-12-29T12:41:50;96742.19;;;13.12;61.37
9281;BME280;4679;47.966;7.958;2022-12-29T12:44:00;96735.00;;;13.12;61.47
9281;BME280;4679;47.966;7.958;2022-12-29T12:46:19;96729.66;;;13.17;61.25
9281;BME280;4679;47.966;7.958;2022-12-29T12:51:07;96745.38;;;13.24;61.00
9281;BME280;4679;47.966;7.958;2022-12-29T12:55:44;96736.28;;;13.40;60.91
9281;BME280;4679;47.966;7.958;2022-12-29T12:57:53;96731.75;;;13.41;60.88
9281;BME280;4679;47.966;7.958;2022-12-29T13:00:02;96723.22;;;13.38;60.82
9281;BME280;4679;47.966;7.958;2022-12-29T13:02:17;96721.63;;;13.37;60.66
9281;BME280;4679;47.966;7.958;2022-12-29T13:04:46;96733.63;;;13.35;60.75
9281;BME280;4679;47.966;7.958;2022-12-29T13:06:56;96720.31;;;13.30;61.05
9281;BME280;4679;47.966;7.958;2022-12-29T13:09:44;96728.59;;;13.28;61.00
9281;BME280;4679;47.966;7.958;2022-12-29T13:11:58;96732.31;;;13.27;60.77
9281;BME280;4679;47.966;7.958;2022-12-29T13:14:19;96705.69;;;13.27;60.81
9281;BME280;4679;47.966;7.958;2022-12-29T13:16:29;96714.72;;;13.31;60.75
9281;BME280;4679;47.966;7.958;2022-12-29T13:18:37;96716.31;;;13.32;60.86
9281;BME280;4679;47.966;7.958;2022-12-29T13:20:49;96722.16;;;13.34;60.91
9281;BME280;4679;47.966;7.958;2022-12-29T13:23:03;96711.50;;;13.34;60.79
9281;BME280;4679;47.966;7.958;2022-12-29T13:25:21;96728.59;;;13.28;60.63
9281;BME280;4679;47.966;7.958;2022-12-29T13:27:32;96723.00;;;13.25;60.85
9281;BME280;4679;47.966;7.958;2022-12-29T13:29:43;96726.19;;;13.22;60.83
9281;BME280;4679;47.966;7.958;2022-12-29T13:31:52;96713.41;;;13.19;61.01
9281;BME280;4679;47.966;7.958;2022-12-29T13:34:00;96711.50;;;13.14;61.34
9281;BME280;4679;47.966;7.958;2022-12-29T13:36:10;96718.75;;;13.14;61.33
9281;BME280;4679;47.966;7.958;2022-12-29T13:38:19;96718.47;;;13.15;61.06
9281;BME280;4679;47.966;7.958;2022-12-29T13:40:25;96719.28;;;13.11;61.10
9281;BME280;4679;47.966;7.958;2022-12-29T13:42:28;96723.00;;;13.04;61.19
9281;BME280;4679;47.966;7.958;2022-12-29T13:44:33;96727.81;;;12.97;61.42
9281;BME280;4679;47.966;7.958;2022-12-29T13:46:39;96728.34;;;12.94;61.42
9281;BME280;4679;47.966;7.958;2022-12-29T13:48:46;96729.41;;;12.93;61.63
9281;BME280;4679;47.966;7.958;2022-12-29T13:50:53;96736.31;;;12.89;60.96
9281;BME280;4679;47.966;7.958;2022-12-29T13:53:03;96727.28;;;12.80;61.88
9281;BME280;4679;47.966;7.958;2022-12-29T13:55:22;96724.34;;;12.77;62.24
9281;BME280;4679;47.966;7.958;2022-12-29T13:57:37;96718.22;;;12.76;62.01
9281;BME280;4679;47.966;7.958;2022-12-29T13:59:47;96717.69;;;12.74;62.11
9281;BME280;4679;47.966;7.958;2022-12-29T14:01:55;96720.63;;;12.73;62.28
9281;BME280;4679;47.966;7.958;2022-12-29T14:04:02;96721.69;;;12.72;62.55
9281;BME280;4679;47.966;7.958;2022-12-29T14:06:16;96725.69;;;12.69;62.28
9281;BME280;4679;47.966;7.958;2022-12-29T14:08:20;96713.72;;;12.66;62.29
9281;BME280;4679;47.966;7.958;2022-12-29T14:10:28;96724.38;;;12.66;62.75
9281;BME280;4679;47.966;7.958;2022-12-29T14:12:32;96736.34;;;12.64;62.47
9281;BME280;4679;47.966;7.958;2022-12-29T14:14:37;96739.53;;;12.61;62.78
9281;BME280;4679;47.966;7.958;2022-12-29T14:16:40;96736.88;;;12.61;62.58
9281;BME280;4679;47.966;7.958;2022-12-29T14:18:43;96722.75;;;12.60;62.68
9281;BME280;4679;47.966;7.958;2022-12-29T14:20:53;96728.59;;;12.57;62.64
9281;BME280;4679;47.966;7.958;2022-12-29T14:22:57;96739.78;;;12.59;63.01
9281;BME280;4679;47.966;7.958;2022-12-29T14:24:59;96727.00;;;12.61;62.71
9281;BME280;4679;47.966;7.958;2022-12-29T14:29:43;96743.25;;;12.65;62.72
9281;BME280;4679;47.966;7.958;2022-12-29T14:31:45;96746.97;;;12.64;62.63
9281;BME280;4679;47.966;7.958;2022-12-29T14:36:25;96745.94;;;12.65;62.54
9281;BME280;4679;47.966;7.958;2022-12-29T14:38:29;96747.53;;;12.66;63.06
9281;BME280;4679;47.966;7.958;2022-12-29T14:40:32;96754.97;;;12.69;62.10
9281;BME280;4679;47.966;7.958;2022-12-29T14:42:37;96748.31;;;12.66;63.02
9281;BME280;4679;47.966;7.958;2022-12-29T14:44:48;96754.72;;;12.65;62.77
9281;BME280;4679;47.966;7.958;2022-12-29T14:46:57;96756.84;;;12.63;63.19
9281;BME280;4679;47.966;7.958;2022-12-29T14:49:01;96750.97;;;12.61;62.99
9281;BME280;4679;47.966;7.958;2022-12-29T14:51:24;96760.81;;;12.61;62.42
9281;BME280;4679;47.966;7.958;2022-12-29T14:53:44;96752.84;;;12.61;62.78
9281;BME280;4679;47.966;7.958;2022-12-29T14:55:47;96755.22;;;12.57;62.98
9281;BME280;4679;47.966;7.958;2022-12-29T14:58:00;96755.50;;;12.61;62.95
9281;BME280;4679;47.966;7.958;2022-12-29T15:00:15;96760.28;;;12.64;63.04
9281;BME280;4679;47.966;7.958;2022-12-29T15:02:20;96768.00;;;12.60;62.66
9281;BME280;4679;47.966;7.958;2022-12-29T15:04:27;96762.69;;;12.60;62.93
9281;BME280;4679;47.966;7.958;2022-12-29T15:06:32;96772.78;;;12.58;63.23
9281;BME280;4679;47.966;7.958;2022-12-29T15:08:39;96760.25;;;12.54;62.80
9281;BME280;4679;47.966;7.958;2022-12-29T15:10:45;96760.28;;;12.49;63.45
9281;BME280;4679;47.966;7.958;2022-12-29T15:12:53;96785.84;;;12.50;63.30
9281;BME280;4679;47.966;7.958;2022-12-29T15:14:57;96794.06;;;12.48;63.45
9281;BME280;4679;47.966;7.958;2022-12-29T15:16:59;96791.41;;;12.48;63.54
9281;BME280;4679;47.966;7.958;2022-12-29T15:19:01;96786.09;;;12.48;63.51
9281;BME280;4679;47.966;7.958;2022-12-29T15:21:06;96779.16;;;12.47;63.63
9281;BME280;4679;47.966;7.958;2022-12-29T15:23:10;96797.25;;;12.45;63.13
9281;BME280;4679;47.966;7.958;2022-12-29T15:25:16;96803.63;;;12.44;63.53
9281;BME280;4679;47.966;7.958;2022-12-29T15:27:21;96794.06;;;12.43;63.41
9281;BME280;4679;47.966;7.958;2022-12-29T15:29:32;96796.97;;;12.37;63.97
9281;BME280;4679;47.966;7.958;2022-12-29T15:31:46;96797.75;;;12.27;63.98
9281;BME280;4679;47.966;7.958;2022-12-29T15:33:50;96803.56;;;12.19;63.98
9281;BME280;4679;47.966;7.958;2022-12-29T15:35:54;96785.47;;;12.16;64.10
9281;BME280;4679;47.966;7.958;2022-12-29T15:37:56;96787.03;;;12.12;64.19
9281;BME280;4679;47.966;7.958;2022-12-29T15:39:58;96780.94;;;12.06;64.39
9281;BME280;4679;47.966;7.958;2022-12-29T15:42:03;96780.38;;;11.99;64.82
9281;BME280;4679;47.966;7.958;2022-12-29T15:44:16;96784.06;;;11.98;64.81
9281;BME280;4679;47.966;7.958;2022-12-29T15:46:18;96779.81;;;11.97;64.72
9281;BME280;4679;47.966;7.958;2022-12-29T15:48:23;96786.19;;;11.96;64.66
9281;BME280;4679;47.966;7.958;2022-12-29T15:50:27;96785.09;;;11.87;65.48
9281;BME280;4679;47.966;7.958;2022-12-29T15:52:31;96799.09;;;11.72;65.12
9281;BME280;4679;47.966;7.958;2022-12-29T15:54:34;96785.47;;;11.58;66.47
9281;BME280;4679;47.966;7.958;2022-12-29T15:56:36;96796.56;;;11.45;66.22
9281;BME280;4679;47.966;7.958;2022-12-29T15:58:40;96799.19;;;11.40;66.82
9281;BME280;4679;47.966;7.958;2022-12-29T16:00:47;96786.19;;;11.49;67.00
9281;BME280;4679;47.966;7.958;2022-12-29T16:02:49;96801.88;;;11.45;66.16
9281;BME280;4679;47.966;7.958;2022-12-29T16:04:52;96793.06;;;11.40;66.98
9281;BME280;4679;47.966;7.958;2022-12-29T16:06:58;96805.00;;;11.37;67.12
9281;BME280;4679;47.966;7.958;2022-12-29T16:09:03;96805.81;;;11.38;67.43
9281;BME280;4679;47.966;7.958;2022-12-29T16:11:18;96795.19;;;11.38;67.55
9281;BME280;4679;47.966;7.958;2022-12-29T16:13:25;96806.91;;;11.42;67.01
9281;BME280;4679;47.966;7.958;2022-12-29T16:15:27;96796.28;;;11.42;67.25
9281;BME280;4679;47.966;7.958;2022-12-29T16:17:33;96791.25;;;11.45;66.93
9281;BME280;4679;47.966;7.958;2022-12-29T16:19:37;96805.84;;;11.43;67.61
9281;BME280;4679;47.966;7.958;2022-12-29T16:21:42;96805.59;;;11.49;68.08
9281;BME280;4679;47.966;7.958;2022-12-29T16:23:47;96797.41;;;11.56;67.38
9281;BME280;4679;47.966;7.958;2022-12-29T16:25:50;96802.72;;;11.56;67.74
9281;BME280;4679;47.966;7.958;2022-12-29T16:27:54;96803.78;;;11.55;67.71
9281;BME280;4679;47.966;7.958;2022-12-29T16:29:56;96799.56;;;11.59;67.41
9281;BME280;4679;47.966;7.958;2022-12-29T16:31:59;96798.22;;;11.61;67.99
9281;BME280;4679;47.966;7.958;2022-12-29T16:34:19;96804.09;;;11.63;67.47
9281;BME280;4679;47.966;7.958;2022-12-29T16:36:24;96807.03;;;11.67;66.89
9281;BME280;4679;47.966;7.958;2022-12-29T16:38:31;96799.56;;;11.64;67.74
9281;BME280;4679;47.966;7.958;2022-12-29T16:40:38;96810.19;;;11.64;67.00
9281;BME280;4679;47.966;7.958;2022-12-29T16:42:46;96806.19;;;11.61;67.09
9281;BME280;4679;47.966;7.958;2022-12-29T16:44:48;96809.94;;;11.60;66.83
9281;BME280;4679;47.966;7.958;2022-12-29T16:47:18;96817.63;;;11.62;66.92
9281;BME280;4679;47.966;7.958;2022-12-29T16:49:20;96816.03;;;11.61;67.13
9281;BME280;4679;47.966;7.958;2022-12-29T16:51:29;96836.75;;;11.59;67.16
9281;BME280;4679;47.966;7.958;2022-12-29T16:53:35;96829.84;;;11.58;67.97
9281;BME280;4679;47.966;7.958;2022-12-29T16:55:37;96831.16;;;11.55;67.47
9281;BME280;4679;47.966;7.958;2022-12-29T16:57:42;96841.75;;;11.50;67.36
9281;BME280;4679;47.966;7.958;2022-12-29T16:59:45;96826.03;;;11.44;67.71
9281;BME280;4679;47.966;7.958;2022-12-29T17:01:46;96831.78;;;11.31;68.66
9281;BME280;4679;47.966;7.958;2022-12-29T17:03:50;96820.78;;;11.17;68.99
9281;BME280;4679;47.966;7.958;2022-12-29T17:05:53;96827.13;;;11.11;68.54
9281;BME280;4679;47.966;7.958;2022-12-29T17:07:55;96833.44;;;11.05;68.30
9281;BME280;4679;47.966;7.958;2022-12-29T17:10:04;96833.66;;;10.98;69.58
9281;BME280;4679;47.966;7.958;2022-12-29T17:12:07;96839.16;;;10.91;70.03
9281;BME280;4679;47.966;7.958;2022-12-29T17:14:25;96840.16;;;10.85;69.29
9281;BME280;4679;47.966;7.958;2022-12-29T17:16:28;96830.31;;;10.81;68.72
9281;BME280;4679;47.966;7.958;2022-12-29T17:18:30;96826.00;;;10.75;70.29
9281;BME280;4679;47.966;7.958;2022-12-29T17:20:32;96820.63;;;10.65;70.31
9281;BME280;4679;47.966;7.958;2022-12-29T17:22:34;96827.53;;;10.66;70.70
9281;BME280;4679;47.966;7.958;2022-12-29T17:24:36;96813.75;;;10.69;70.19
9281;BME280;4679;47.966;7.958;2022-12-29T17:26:39;96819.00;;;10.64;70.23
9281;BME280;4679;47.966;7.958;2022-12-29T17:28:41;96823.28;;;10.65;70.27
9281;BME280;4679;47.966;7.958;2022-12-29T17:30:42;96822.78;;;10.68;70.67
9281;BME280;4679;47.966;7.958;2022-12-29T17:32:48;96824.38;;;10.69;70.30
9281;BME280;4679;47.966;7.958;2022-12-29T17:34:52;96836.56;;;10.70;71.19
9281;BME280;4679;47.966;7.958;2022-12-29T17:36:53;96820.38;;;10.66;71.37
9281;BME280;4679;47.966;7.958;2022-12-29T17:38:55;96826.91;;;10.58;71.79
9281;BME280;4679;47.966;7.958;2022-12-29T17:40:57;96823.16;;;10.54;71.18
9281;BME280;4679;47.966;7.958;2022-12-29T17:43:01;96807.78;;;10.56;70.95
9281;BME280;4679;47.966;7.958;2022-12-29T17:45:03;96830.44;;;10.64;71.38
9281;BME280;4679;47.966;7.958;2022-12-29T17:47:05;96815.56;;;10.63;71.86
9281;BME280;4679;47.966;7.958;2022-12-29T17:49:10;96817.41;;;10.63;71.92
9281;BME280;4679;47.966;7.958;2022-12-29T17:51:20;96817.41;;;10.63;72.27
9281;BME280;4679;47.966;7.958;2022-12-29T17:53:24;96807.84;;;10.62;72.54
9281;BME280;4679;47.966;7.958;2022-12-29T17:55:26;96815.56;;;10.63;72.41
9281;BME280;4679;47.966;7.958;2022-12-29T17:57:28;96819.88;;;10.69;71.90
9281;BME280;4679;47.966;7.958;2022-12-29T17:59:31;96811.13;;;10.74;72.39
9281;BME280;4679;47.966;7.958;2022-12-29T18:01:33;96820.69;;;10.75;72.25
9281;BME280;4679;47.966;7.958;2022-12-29T18:03:36;96823.41;;;10.80;71.37
9281;BME280;4679;47.966;7.958;2022-12-29T18:05:38;96826.91;;;10.85;71.88
9281;BME280;4679;47.966;7.958;2022-12-29T18:07:40;96818.75;;;10.92;71.94
9281;BME280;4679;47.966;7.958;2022-12-29T18:09:42;96823.00;;;10.93;72.01
9281;BME280;4679;47.966;7.958;2022-12-29T18:11:44;96820.88;;;10.95;71.66
9281;BME280;4679;47.966;7.958;2022-12-29T18:13:45;96823.84;;;10.99;71.78
9281;BME280;4679;47.966;7.958;2022-12-29T18:15:49;96821.72;;;11.01;71.40
9281;BME280;4679;47.966;7.958;2022-12-29T18:17:53;96818.53;;;10.99;71.80
9281;BME280;4679;47.966;7.958;2022-12-29T18:19:59;96819.59;;;10.98;71.73
9281;BME280;4679;47.966;7.958;2022-12-29T18:22:00;96818.53;;;10.99;71.53
9281;BME280;4679;47.966;7.958;2022-12-29T18:24:02;96819.13;;;11.06;71.58
9281;BME280;4679;47.966;7.958;2022-12-29T18:26:06;96826.81;;;11.07;72.01
9281;BME280;4679;47.966;7.958;2022-12-29T18:28:14;96824.97;;;11.08;71.79
9281;BME280;4679;47.966;7.958;2022-12-29T18:30:16;96819.66;;;11.08;70.92
9281;BME280;4679;47.966;7.958;2022-12-29T18:32:19;96818.31;;;11.05;71.18
9281;BME280;4679;47.966;7.958;2022-12-29T18:34:21;96807.69;;;11.05;71.25
9281;BME280;4679;47.966;7.958;2022-12-29T18:36:24;96800.28;;;11.07;71.24
9281;BME280;4679;47.966;7.958;2022-12-29T18:38:26;96807.75;;;11.15;71.20
9281;BME280;4679;47.966;7.958;2022-12-29T18:40:29;96796.88;;;11.17;70.72
9281;BME280;4679;47.966;7.958;2022-12-29T18:42:30;96788.13;;;11.16;70.74
9281;BME280;4679;47.966;7.958;2022-12-29T18:44:32;96806.69;;;11.11;71.13
9281;BME280;4679;47.966;7.958;2022-12-29T18:46:34;96809.09;;;11.13;70.92
9281;BME280;4679;47.966;7.958;2022-12-29T18:48:38;96804.03;;;11.16;70.57
9281;BME280;4679;47.966;7.958;2022-12-29T18:50:40;96814.16;;;11.14;70.96
9281;BME280;4679;47.966;7.958;2022-12-29T18:52:42;96818.91;;;11.12;70.34
9281;BME280;4679;47.966;7.958;2022-12-29T18:54:43;96812.81;;;11.12;71.19
9281;BME280;4679;47.966;7.958;2022-12-29T18:56:45;96801.88;;;11.08;71.55
9281;BME280;4679;47.966;7.958;2022-12-29T18:58:47;96814.09;;;11.09;71.52
9281;BME280;4679;47.966;7.958;2022-12-29T19:00:49;96818.59;;;11.09;70.94
9281;BME280;4679;47.966;7.958;2022-12-29T19:02:51;96823.69;;;11.15;71.16
9281;BME280;4679;47.966;7.958;2022-12-29T19:04:54;96808.41;;;11.27;70.61